createdAt,value
2023-02-26T00:01:28.622Z,-0.85
2023-02-26T00:03:58.128Z,-0.88
2023-02-26T00:06:26.327Z,-0.89
2023-02-26T00:08:53.901Z,-0.90
2023-02-26T00:11:21.045Z,-0.91
2023-02-26T00:13:48.056Z,-0.93
2023-02-26T00:16:29.139Z,-0.96
2023-02-26T00:18:56.476Z,-0.99
2023-02-26T00:21:24.448Z,-1.00
2023-02-26T00:23:52.518Z,-1.02
2023-02-26T00:26:21.083Z,-1.05
2023-02-26T00:28:48.478Z,-1.07
2023-02-26T00:31:23.105Z,-1.07
2023-02-26T00:33:49.942Z,-1.09
2023-02-26T00:36:29.738Z,-1.13
2023-02-26T00:39:36.662Z,-1.13
2023-02-26T00:42:03.558Z,-1.16
2023-02-26T00:44:30.567Z,-1.20
2023-02-26T00:47:17.082Z,-1.24
2023-02-26T00:49:56.997Z,-1.26
2023-02-26T00:52:52.796Z,-1.26
2023-02-26T00:55:19.213Z,-1.24
2023-02-26T00:57:46.252Z,-1.33
2023-02-26T01:00:14.296Z,-1.32
2023-02-26T01:02:41.588Z,-1.28
2023-02-26T01:05:09.840Z,-1.31
2023-02-26T01:08:17.440Z,-1.30
2023-02-26T01:10:44.028Z,-1.32
2023-02-26T01:13:11.121Z,-1.33
2023-02-26T01:15:38.245Z,-1.35
2023-02-26T01:18:18.201Z,-1.35
2023-02-26T01:20:49.710Z,-1.41
2023-02-26T01:23:21.232Z,-1.42
2023-02-26T01:25:53.810Z,-1.48
2023-02-26T01:28:20.566Z,-1.43
2023-02-26T01:30:49.720Z,-1.50
2023-02-26T01:33:27.647Z,-1.55
2023-02-26T01:36:09.501Z,-1.61
2023-02-26T01:38:45.077Z,-1.60
2023-02-26T01:41:23.753Z,-1.64
2023-02-26T01:44:09.345Z,-1.60
2023-02-26T01:46:47.682Z,-1.60
2023-02-26T01:49:17.484Z,-1.61
2023-02-26T01:51:46.861Z,-1.63
2023-02-26T01:54:15.320Z,-1.65
2023-02-26T01:56:43.940Z,-1.75
2023-02-26T01:59:14.402Z,-1.79
2023-02-26T02:01:40.938Z,-1.80
2023-02-26T02:04:13.006Z,-1.89
2023-02-26T02:06:39.831Z,-1.93
2023-02-26T02:09:08.128Z,-1.99
2023-02-26T02:11:39.235Z,-2.03
2023-02-26T02:14:23.145Z,-2.09
2023-02-26T02:17:14.294Z,-2.11
2023-02-26T02:20:20.945Z,-2.16
2023-02-26T02:23:10.482Z,-2.20
2023-02-26T02:26:15.027Z,-2.23
2023-02-26T02:29:15.838Z,-2.32
2023-02-26T02:31:46.969Z,-2.40
2023-02-26T02:34:21.316Z,-2.39
2023-02-26T02:37:16.421Z,-2.39
2023-02-26T02:40:01.615Z,-2.43
2023-02-26T02:42:46.372Z,-2.46
2023-02-26T02:45:38.642Z,-2.52
2023-02-26T02:48:13.138Z,-2.60
2023-02-26T02:51:00.178Z,-2.63
2023-02-26T02:53:33.495Z,-2.74
2023-02-26T02:56:07.476Z,-2.81
2023-02-26T02:58:43.197Z,-2.77
2023-02-26T03:01:15.701Z,-2.81
2023-02-26T03:04:05.440Z,-2.82
2023-02-26T03:06:32.498Z,-2.83
2023-02-26T03:09:01.199Z,-2.86
2023-02-26T03:11:30.639Z,-2.90
2023-02-26T03:13:58.598Z,-2.94
2023-02-26T03:16:45.642Z,-2.94
2023-02-26T03:19:40.645Z,-2.94
2023-02-26T03:22:14.004Z,-2.95
2023-02-26T03:24:52.058Z,-2.96
2023-02-26T03:27:28.937Z,-2.94
2023-02-26T03:30:19.382Z,-3.01
2023-02-26T03:32:59.543Z,-3.07
2023-02-26T03:35:35.536Z,-3.00
2023-02-26T03:38:07.042Z,-2.99
2023-02-26T03:40:40.192Z,-3.00
2023-02-26T03:43:12.148Z,-3.05
2023-02-26T03:45:42.730Z,-3.03
2023-02-26T03:48:13.732Z,-3.07
2023-02-26T03:50:49.945Z,-3.21
2023-02-26T03:53:22.091Z,-3.29
2023-02-26T03:55:55.023Z,-3.33
2023-02-26T03:58:21.495Z,-3.45
2023-02-26T04:00:55.190Z,-3.49
2023-02-26T04:03:32.007Z,-3.46
2023-02-26T04:06:00.874Z,-3.41
2023-02-26T04:08:28.938Z,-3.38
2023-02-26T04:10:59.711Z,-3.43
2023-02-26T04:13:28.444Z,-3.45
2023-02-26T04:15:54.994Z,-3.52
2023-02-26T04:18:21.632Z,-3.56
2023-02-26T04:20:48.120Z,-3.57
2023-02-26T04:23:14.477Z,-3.58
2023-02-26T04:25:42.067Z,-3.68
2023-02-26T04:28:08.774Z,-3.70
2023-02-26T04:30:35.192Z,-3.63
2023-02-26T04:33:02.056Z,-3.64
2023-02-26T04:35:28.985Z,-3.72
2023-02-26T04:37:55.544Z,-3.75
2023-02-26T04:40:22.519Z,-3.74
2023-02-26T04:42:49.030Z,-3.74
2023-02-26T04:45:15.552Z,-3.79
2023-02-26T04:47:42.008Z,-3.81
2023-02-26T04:50:09.244Z,-3.79
2023-02-26T04:52:36.068Z,-3.79
2023-02-26T04:55:03.770Z,-3.72
2023-02-26T04:57:30.498Z,-3.77
2023-02-26T04:59:57.014Z,-3.84
2023-02-26T05:02:23.628Z,-3.88
2023-02-26T05:04:50.167Z,-3.97
2023-02-26T05:07:16.954Z,-3.97
2023-02-26T05:09:43.639Z,-3.95
2023-02-26T05:12:11.214Z,-4.02
2023-02-26T05:14:37.664Z,-4.05
2023-02-26T05:17:04.053Z,-4.12
2023-02-26T05:19:30.790Z,-4.19
2023-02-26T05:21:57.204Z,-4.19
2023-02-26T05:24:23.773Z,-4.18
2023-02-26T05:26:50.642Z,-4.19
2023-02-26T05:29:17.035Z,-4.15
2023-02-26T05:31:43.692Z,-4.19
2023-02-26T05:34:10.165Z,-4.18
2023-02-26T05:36:36.498Z,-4.25
2023-02-26T05:39:03.542Z,-4.21
2023-02-26T05:41:30.003Z,-4.26
2023-02-26T05:43:56.633Z,-4.27
2023-02-26T05:46:23.525Z,-4.23
2023-02-26T05:48:50.245Z,-4.27
2023-02-26T05:51:16.691Z,-4.23
2023-02-26T05:53:43.106Z,-4.16
2023-02-26T05:56:09.560Z,-4.27
2023-02-26T05:58:37.886Z,-4.31
2023-02-26T06:01:04.385Z,-4.35
2023-02-26T06:03:30.853Z,-4.36
2023-02-26T06:05:57.333Z,-4.37
2023-02-26T06:08:25.200Z,-4.36
2023-02-26T06:10:51.867Z,-4.30
2023-02-26T06:13:18.627Z,-4.22
2023-02-26T06:15:44.928Z,-4.13
2023-02-26T06:18:11.583Z,-4.13
2023-02-26T06:20:38.045Z,-4.06
2023-02-26T06:23:04.608Z,-3.90
2023-02-26T06:25:30.992Z,-3.83
2023-02-26T06:27:57.404Z,-3.79
2023-02-26T06:30:24.070Z,-3.72
2023-02-26T06:32:50.631Z,-3.68
2023-02-26T06:35:17.097Z,-3.68
2023-02-26T06:37:43.600Z,-3.65
2023-02-26T06:40:10.616Z,-3.59
2023-02-26T06:42:36.990Z,-3.56
2023-02-26T06:45:04.392Z,-3.47
2023-02-26T06:47:32.445Z,-3.44
2023-02-26T06:49:59.169Z,-3.41
2023-02-26T06:52:25.701Z,-3.31
2023-02-26T06:54:52.822Z,-3.21
2023-02-26T06:57:19.170Z,-3.05
2023-02-26T06:59:46.062Z,-2.91
2023-02-26T07:02:18.310Z,-2.78
2023-02-26T07:04:45.337Z,-2.71
2023-02-26T07:07:12.319Z,-2.63
2023-02-26T07:09:39.304Z,-2.55
2023-02-26T07:12:05.947Z,-2.38
2023-02-26T07:14:32.372Z,-2.30
2023-02-26T07:16:59.611Z,-2.38
2023-02-26T07:19:26.010Z,-2.25
2023-02-26T07:21:54.035Z,-2.12
2023-02-26T07:24:21.654Z,-2.02
2023-02-26T07:26:48.046Z,-1.88
2023-02-26T07:29:16.026Z,-1.95
2023-02-26T07:31:43.103Z,-1.97
2023-02-26T07:34:09.697Z,-1.88
2023-02-26T07:36:36.215Z,-1.80
2023-02-26T07:39:03.402Z,-1.81
2023-02-26T07:41:30.072Z,-2.02
2023-02-26T07:43:56.787Z,-2.14
2023-02-26T07:46:23.624Z,-1.95
2023-02-26T07:48:50.233Z,-2.16
2023-02-26T07:51:16.756Z,-2.06
2023-02-26T07:53:43.201Z,-1.80
2023-02-26T07:56:09.595Z,-1.75
2023-02-26T07:58:36.289Z,-1.75
2023-02-26T08:01:03.775Z,-1.50
2023-02-26T08:03:30.177Z,-1.48
2023-02-26T08:05:56.524Z,-1.90
2023-02-26T08:08:23.274Z,-1.83
2023-02-26T08:10:49.969Z,-1.87
2023-02-26T08:13:16.688Z,-1.72
2023-02-26T08:15:43.282Z,-1.52
2023-02-26T08:18:10.782Z,-1.22
2023-02-26T08:20:38.295Z,-1.40
2023-02-26T08:23:04.909Z,-1.22
2023-02-26T08:25:31.480Z,-1.14
2023-02-26T08:27:58.023Z,-0.98
2023-02-26T08:30:25.029Z,-1.30
2023-02-26T08:32:51.675Z,-1.18
2023-02-26T08:35:19.791Z,-1.16
2023-02-26T08:37:46.479Z,-0.91
2023-02-26T08:40:15.251Z,-1.01
2023-02-26T08:42:41.950Z,-0.85
2023-02-26T08:45:09.120Z,-0.68
2023-02-26T08:47:39.582Z,-0.77
2023-02-26T08:50:10.720Z,-1.03
2023-02-26T08:52:37.341Z,-1.14
2023-02-26T08:55:03.929Z,-1.19
2023-02-26T08:57:30.341Z,-1.12
2023-02-26T08:59:56.838Z,-1.07
2023-02-26T09:02:23.509Z,-0.86
2023-02-26T09:04:51.038Z,-0.74
2023-02-26T09:07:17.563Z,-1.08
2023-02-26T09:09:44.343Z,-1.09
2023-02-26T09:12:10.729Z,-1.24
2023-02-26T09:14:37.496Z,-1.00
2023-02-26T09:17:04.684Z,-1.17
2023-02-26T09:19:31.101Z,-1.18
2023-02-26T09:21:57.685Z,-1.18
2023-02-26T09:24:24.126Z,-1.09
2023-02-26T09:26:50.595Z,-1.00
2023-02-26T09:29:17.394Z,-1.04
2023-02-26T09:31:44.550Z,-0.94
2023-02-26T09:34:11.675Z,-0.51
2023-02-26T09:36:38.533Z,-0.60
2023-02-26T09:39:05.089Z,-0.35
2023-02-26T09:41:39.811Z,-0.74
2023-02-26T09:44:12.117Z,-0.53
2023-02-26T09:46:46.193Z,-0.76
2023-02-26T09:49:21.604Z,-0.73
2023-02-26T09:51:54.050Z,-0.61
2023-02-26T09:54:27.018Z,-0.44
2023-02-26T09:56:56.702Z,-0.20
2023-02-26T09:59:23.344Z,-0.09
2023-02-26T10:02:14.518Z,-0.17
2023-02-26T10:04:43.890Z,-0.30
2023-02-26T10:07:38.359Z,-0.35
2023-02-26T10:10:27.817Z,-0.30
2023-02-26T10:12:54.557Z,-0.41
2023-02-26T10:15:35.782Z,-0.43
2023-02-26T10:18:10.977Z,-0.53
2023-02-26T10:20:58.597Z,-0.61
2023-02-26T10:23:37.395Z,-0.37
2023-02-26T10:26:14.351Z,-0.57
2023-02-26T10:29:07.210Z,-0.49
2023-02-26T10:31:52.236Z,-0.18
2023-02-26T10:34:42.616Z,-0.34
2023-02-26T10:37:45.414Z,-0.50
2023-02-26T10:40:17.415Z,-0.44
2023-02-26T10:42:47.569Z,-0.48
2023-02-26T10:45:33.979Z,-0.32
2023-02-26T10:48:19.967Z,-0.10
2023-02-26T10:50:51.974Z,0.11
2023-02-26T10:53:20.055Z,0.42
2023-02-26T10:55:51.665Z,0.32
2023-02-26T10:58:22.563Z,0.53
2023-02-26T11:00:49.828Z,0.59
2023-02-26T11:03:20.150Z,0.96
2023-02-26T11:05:50.123Z,0.64
2023-02-26T11:08:25.990Z,0.91
2023-02-26T11:11:38.783Z,0.83
2023-02-26T11:14:10.105Z,0.57
2023-02-26T11:16:43.086Z,0.68
2023-02-26T11:19:10.715Z,0.71
2023-02-26T11:21:54.895Z,0.27
2023-02-26T11:24:35.734Z,0.45
2023-02-26T11:27:06.462Z,0.36
2023-02-26T11:29:38.364Z,0.64
2023-02-26T11:32:07.629Z,0.66
2023-02-26T11:34:36.285Z,0.93
2023-02-26T11:37:04.875Z,1.04
2023-02-26T11:39:35.998Z,1.18
2023-02-26T11:42:04.231Z,1.02
2023-02-26T11:44:43.368Z,1.02
2023-02-26T11:47:15.836Z,1.19
2023-02-26T11:49:51.224Z,0.83
2023-02-26T11:52:29.729Z,0.67
2023-02-26T11:55:20.753Z,0.90
2023-02-26T11:57:51.081Z,1.02
2023-02-26T12:00:32.868Z,0.88
2023-02-26T12:03:04.073Z,0.80
2023-02-26T12:05:31.475Z,1.37
2023-02-26T12:07:58.574Z,1.23
2023-02-26T12:10:37.392Z,1.27
2023-02-26T12:13:30.341Z,1.02
2023-02-26T12:16:21.100Z,1.26
2023-02-26T12:19:17.850Z,1.69
2023-02-26T12:22:22.590Z,1.63
2023-02-26T12:25:19.071Z,1.35
2023-02-26T12:27:56.442Z,1.15
2023-02-26T12:30:41.798Z,1.22
2023-02-26T12:33:30.533Z,0.94
2023-02-26T12:36:18.690Z,1.16
2023-02-26T12:39:02.494Z,1.23
2023-02-26T12:41:43.257Z,1.47
2023-02-26T12:44:28.078Z,1.45
2023-02-26T12:47:11.958Z,1.25
2023-02-26T12:49:58.310Z,1.56
2023-02-26T12:52:58.295Z,1.42
2023-02-26T12:55:43.541Z,1.26
2023-02-26T12:58:30.612Z,1.42
2023-02-26T13:01:36.702Z,1.31
2023-02-26T13:04:16.380Z,1.32
2023-02-26T13:06:58.189Z,1.10
2023-02-26T13:09:59.431Z,1.17
2023-02-26T13:12:55.300Z,1.03
2023-02-26T13:15:36.531Z,1.01
2023-02-26T13:18:36.866Z,0.98
2023-02-26T13:21:11.590Z,0.96
2023-02-26T13:23:57.646Z,1.48
2023-02-26T13:26:29.480Z,1.37
2023-02-26T13:29:11.341Z,1.46
2023-02-26T13:32:04.509Z,1.45
2023-02-26T13:34:48.612Z,1.37
2023-02-26T13:37:40.203Z,1.05
2023-02-26T13:40:28.788Z,1.30
2023-02-26T13:43:13.912Z,1.15
2023-02-26T13:45:54.803Z,1.43
2023-02-26T13:48:23.934Z,1.52
2023-02-26T13:51:05.211Z,1.75
2023-02-26T13:53:40.630Z,2.07
2023-02-26T13:56:14.382Z,2.14
2023-02-26T13:58:43.036Z,1.91
2023-02-26T14:01:20.483Z,1.67
2023-02-26T14:03:53.194Z,1.87
2023-02-26T14:06:41.148Z,1.86
2023-02-26T14:09:22.921Z,1.82
2023-02-26T14:11:55.351Z,1.96
2023-02-26T14:14:21.749Z,1.87
2023-02-26T14:17:06.472Z,1.99
2023-02-26T14:19:37.602Z,2.22
2023-02-26T14:22:22.977Z,2.21
2023-02-26T14:24:58.722Z,2.24
2023-02-26T14:27:36.876Z,1.84
2023-02-26T14:30:08.918Z,1.87
2023-02-26T14:32:54.367Z,2.69
2023-02-26T14:35:32.767Z,2.86
2023-02-26T14:38:15.740Z,2.08
2023-02-26T14:40:48.803Z,2.61
2023-02-26T14:43:37.140Z,2.43
2023-02-26T14:46:05.747Z,2.15
2023-02-26T14:48:33.093Z,1.88
2023-02-26T14:51:15.459Z,1.98
2023-02-26T14:53:50.932Z,1.74
2023-02-26T14:56:30.508Z,2.02
2023-02-26T14:59:02.851Z,2.25
2023-02-26T15:01:51.787Z,2.20
2023-02-26T15:04:53.730Z,2.14
2023-02-26T15:07:42.953Z,1.98
2023-02-26T15:10:29.446Z,2.36
2023-02-26T15:13:07.639Z,2.26
2023-02-26T15:15:57.815Z,2.04
2023-02-26T15:18:55.067Z,1.82
2023-02-26T15:21:37.687Z,1.68
2023-02-26T15:24:05.041Z,1.70
2023-02-26T15:26:35.333Z,1.41
2023-02-26T15:29:11.634Z,1.37
2023-02-26T15:32:02.568Z,1.42
2023-02-26T15:34:29.889Z,1.49
2023-02-26T15:36:57.718Z,1.64
2023-02-26T15:39:25.138Z,1.51
2023-02-26T15:41:54.326Z,1.40
2023-02-26T15:44:28.634Z,1.41
2023-02-26T15:46:59.775Z,1.45
2023-02-26T15:49:34.762Z,1.32
2023-02-26T15:52:03.009Z,1.28
2023-02-26T15:54:45.241Z,1.25
2023-02-26T15:57:13.733Z,1.28
2023-02-26T15:59:44.315Z,1.09
2023-02-26T16:02:12.509Z,1.10
2023-02-26T16:04:39.153Z,1.11
2023-02-26T16:07:09.435Z,1.14
2023-02-26T16:09:44.626Z,1.27
2023-02-26T16:12:22.679Z,1.17
2023-02-26T16:14:53.754Z,1.14
2023-02-26T16:17:33.209Z,1.28
2023-02-26T16:20:13.010Z,1.10
2023-02-26T16:22:47.655Z,1.01
2023-02-26T16:25:25.589Z,0.92
2023-02-26T16:28:05.883Z,0.91
2023-02-26T16:30:38.478Z,0.81
2023-02-26T16:36:14.717Z,0.91
2023-02-26T16:39:00.060Z,0.86
2023-02-26T16:41:30.384Z,0.83
2023-02-26T16:43:59.777Z,0.82
2023-02-26T16:46:34.875Z,0.79
2023-02-26T16:49:25.509Z,0.70
2023-02-26T16:51:53.904Z,0.69
2023-02-26T16:54:25.670Z,0.63
2023-02-26T16:57:09.403Z,0.59
2023-02-26T16:59:38.582Z,0.55
2023-02-26T17:02:18.539Z,0.50
2023-02-26T17:04:50.721Z,0.37
2023-02-26T17:07:34.297Z,0.39
2023-02-26T17:10:11.045Z,0.35
2023-02-26T17:12:45.479Z,0.24
2023-02-26T17:15:30.571Z,0.23
2023-02-26T17:17:58.083Z,0.19
2023-02-26T17:20:26.515Z,0.13
2023-02-26T17:22:53.491Z,0.13
2023-02-26T17:25:20.681Z,0.15
2023-02-26T17:27:48.325Z,0.15
2023-02-26T17:30:18.474Z,0.14
2023-02-26T17:32:46.133Z,0.09
2023-02-26T17:35:16.067Z,0.06
2023-02-26T17:37:43.297Z,-0.02
2023-02-26T17:40:25.755Z,0.01
2023-02-26T17:42:52.763Z,-0.01
2023-02-26T17:45:20.337Z,0.05
2023-02-26T17:47:48.205Z,-0.02
2023-02-26T17:50:27.357Z,-0.07
2023-02-26T17:52:54.064Z,-0.14
2023-02-26T17:55:21.064Z,-0.19
2023-02-26T17:57:47.812Z,-0.14
2023-02-26T18:00:16.239Z,-0.17
2023-02-26T18:02:46.002Z,-0.21
2023-02-26T18:05:12.611Z,-0.21
2023-02-26T18:07:39.911Z,-0.28
2023-02-26T18:10:07.095Z,-0.30
2023-02-26T18:12:33.872Z,-0.29
2023-02-26T18:15:00.523Z,-0.42
2023-02-26T18:17:29.398Z,-0.39
2023-02-26T18:19:56.491Z,-0.39
2023-02-26T18:22:24.105Z,-0.37
2023-02-26T18:24:51.077Z,-0.33
2023-02-26T18:27:21.557Z,-0.29
2023-02-26T18:29:48.729Z,-0.29
2023-02-26T18:32:24.215Z,-0.29
2023-02-26T18:34:53.849Z,-0.30
2023-02-26T18:37:23.811Z,-0.32
2023-02-26T18:39:50.385Z,-0.26
2023-02-26T18:42:24.310Z,-0.34
2023-02-26T18:44:52.455Z,-0.40
2023-02-26T18:47:22.410Z,-0.47
2023-02-26T18:49:50.061Z,-0.53
2023-02-26T18:52:17.124Z,-0.55
2023-02-26T18:54:43.995Z,-0.62
2023-02-26T18:57:10.926Z,-0.68
2023-02-26T18:59:37.416Z,-0.48
2023-02-26T19:02:06.072Z,-0.68
2023-02-26T19:04:34.036Z,-0.71
2023-02-26T19:07:00.518Z,-0.74
2023-02-26T19:09:26.930Z,-0.77
2023-02-26T19:11:53.590Z,-0.85
2023-02-26T19:14:21.094Z,-0.79
2023-02-26T19:16:47.804Z,-0.74
2023-02-26T19:19:14.342Z,-0.81
2023-02-26T19:21:41.246Z,-0.86
2023-02-26T19:24:12.829Z,-0.88
2023-02-26T19:26:39.521Z,-0.91
2023-02-26T19:29:08.570Z,-0.97
2023-02-26T19:31:38.415Z,-0.97
2023-02-26T19:34:05.248Z,-0.87
2023-02-26T19:36:31.646Z,-0.87
2023-02-26T19:38:58.098Z,-0.84
2023-02-26T19:41:24.666Z,-0.88
2023-02-26T19:43:51.741Z,-0.87
2023-02-26T19:46:18.729Z,-0.97
2023-02-26T19:48:45.395Z,-1.00
2023-02-26T19:51:11.851Z,-1.04
2023-02-26T19:53:38.552Z,-1.00
2023-02-26T20:00:33.610Z,-1.02
2023-02-26T20:10:14.086Z,-1.02
2023-02-26T20:13:28.910Z,-1.14
2023-02-26T20:15:58.402Z,-1.19
2023-02-26T20:18:26.319Z,-1.20
2023-02-26T20:20:53.369Z,-1.20
2023-02-26T20:23:22.354Z,-1.25
2023-02-26T20:25:50.507Z,-1.33
2023-02-26T20:28:21.375Z,-1.37
2023-02-26T20:30:47.753Z,-1.46
2023-02-26T20:33:14.241Z,-1.44
2023-02-26T20:35:45.564Z,-1.34
2023-02-26T20:38:13.775Z,-1.43
2023-02-26T20:40:40.541Z,-1.52
2023-02-26T20:43:07.008Z,-1.50
2023-02-26T20:45:33.564Z,-1.50
2023-02-26T20:48:00.027Z,-1.37
2023-02-26T20:50:26.592Z,-1.48
2023-02-26T20:52:53.059Z,-1.56
2023-02-26T20:55:20.584Z,-1.57
2023-02-26T20:57:48.165Z,-1.56
2023-02-26T21:00:15.107Z,-1.52
2023-02-26T21:02:42.897Z,-1.58
2023-02-26T21:05:10.275Z,-1.42
2023-02-26T21:07:38.426Z,-1.57
2023-02-26T21:10:13.776Z,-1.51
2023-02-26T21:12:40.292Z,-1.55
2023-02-26T21:15:07.877Z,-1.47
2023-02-26T21:17:34.619Z,-1.56
2023-02-26T21:20:01.363Z,-1.57
2023-02-26T21:22:28.248Z,-1.60
2023-02-26T21:24:54.843Z,-1.53
2023-02-26T21:27:21.211Z,-1.58
2023-02-26T21:29:47.639Z,-1.60
2023-02-26T21:32:14.372Z,-1.54
2023-02-26T21:34:41.493Z,-1.52
2023-02-26T21:37:13.068Z,-1.52
2023-02-26T21:39:39.779Z,-1.48
2023-02-26T21:42:10.486Z,-1.50
2023-02-26T21:44:39.447Z,-1.47
2023-02-26T21:47:05.852Z,-1.39
2023-02-26T21:49:32.708Z,-1.52
2023-02-26T21:52:01.294Z,-1.48
2023-02-26T21:54:28.451Z,-1.58
2023-02-26T21:56:55.424Z,-1.65
2023-02-26T21:59:22.692Z,-1.68
2023-02-26T22:01:51.235Z,-1.75
2023-02-26T22:04:19.124Z,-1.79
2023-02-26T22:06:47.277Z,-1.70
2023-02-26T22:09:14.110Z,-1.77
2023-02-26T22:11:40.655Z,-1.86
2023-02-26T22:14:07.114Z,-1.94
2023-02-26T22:16:33.548Z,-1.93
2023-02-26T22:19:00.061Z,-1.97
2023-02-26T22:21:26.792Z,-1.97
2023-02-26T22:23:53.433Z,-2.07
2023-02-26T22:26:20.019Z,-2.07
2023-02-26T22:28:46.362Z,-1.80
2023-02-26T22:31:13.312Z,-1.99
2023-02-26T22:33:39.886Z,-2.08
2023-02-26T22:36:06.875Z,-2.10
2023-02-26T22:38:33.254Z,-2.12
2023-02-26T22:40:59.643Z,-2.21
2023-02-26T22:43:26.063Z,-2.17
2023-02-26T22:45:52.832Z,-2.10
2023-02-26T22:48:19.551Z,-2.18
2023-02-26T22:50:46.007Z,-2.17
2023-02-26T22:53:12.698Z,-2.18
2023-02-26T22:55:39.516Z,-2.23
2023-02-26T22:58:05.941Z,-2.18
2023-02-26T23:00:32.413Z,-2.25
2023-02-26T23:02:58.849Z,-2.28
2023-02-26T23:05:26.345Z,-2.29
2023-02-26T23:07:52.774Z,-2.32
2023-02-26T23:10:19.892Z,-2.36
2023-02-26T23:12:46.458Z,-2.30
2023-02-26T23:15:13.688Z,-2.35
2023-02-26T23:17:41.293Z,-2.38
2023-02-26T23:20:10.133Z,-2.37
2023-02-26T23:22:37.668Z,-2.27
2023-02-26T23:25:04.296Z,-2.45
2023-02-26T23:27:30.650Z,-2.50
2023-02-26T23:29:57.341Z,-2.47
2023-02-26T23:32:23.815Z,-2.51
2023-02-26T23:34:50.572Z,-2.53
2023-02-26T23:37:16.886Z,-2.54
2023-02-26T23:39:43.597Z,-2.61
2023-02-26T23:42:10.133Z,-2.63
2023-02-26T23:44:36.503Z,-2.56
2023-02-26T23:47:02.923Z,-2.55
2023-02-26T23:49:29.281Z,-2.53
2023-02-26T23:51:55.818Z,-2.52
2023-02-26T23:54:22.529Z,-2.58
2023-02-26T23:56:48.891Z,-2.53
2023-02-26T23:59:15.381Z,-2.56
